Time;durP1;ratioP1;P1;durP2;ratioP2;P2;SDS_P1;SDS_P2;PMS_P1;PMS_P2;Temp;Humidity;BMP_temperature;BMP_pressure;BME280_temperature;BME280_humidity;BME280_pressure;Samples;Min_cycle;Max_cycle;Signal;HPM_P1;HPM_P2
2022/07/08 00:00:57;;;;;;;26.83;25.10;;;17.70;72.10;;;;;;5006925;28;20481;-70
2022/07/08 00:03:23;;;;;;;26.70;24.87;;;17.70;72.20;;;;;;5006697;28;20461;-70
2022/07/08 00:05:51;;;;;;;26.20;24.70;;;17.70;72.10;;;;;;5007725;28;21098;-70
2022/07/08 00:08:19;;;;;;;26.57;24.87;;;17.80;71.90;;;;;;5005357;28;20503;-70
2022/07/08 00:10:47;;;;;;;26.83;24.80;;;17.60;72.40;;;;;;5005446;28;20457;-70
2022/07/08 00:13:14;;;;;;;26.50;24.80;;;17.50;72.60;;;;;;5010692;28;20472;-70
2022/07/08 00:15:42;;;;;;;27.80;25.50;;;17.70;72.30;;;;;;5006129;28;20552;-70
2022/07/08 00:18:09;;;;;;;27.50;25.73;;;17.70;72.20;;;;;;5008648;28;20508;-70
2022/07/08 00:20:36;;;;;;;27.40;25.80;;;17.70;72.00;;;;;;5005902;28;20487;-69
2022/07/08 00:23:03;;;;;;;27.70;25.60;;;17.60;71.40;;;;;;5008688;28;20556;-70
2022/07/08 00:25:30;;;;;;;27.47;25.77;;;17.50;71.00;;;;;;5009953;28;20544;-70
2022/07/08 00:27:58;;;;;;;27.03;25.30;;;17.50;70.70;;;;;;5010118;28;20485;-70
2022/07/08 00:30:25;;;;;;;27.67;26.07;;;17.50;69.30;;;;;;5012247;28;20835;-70
2022/07/08 00:32:52;;;;;;;27.67;25.77;;;17.40;69.40;;;;;;5010862;28;20461;-69
2022/07/08 00:35:19;;;;;;;27.37;25.53;;;17.30;69.50;;;;;;5007590;28;20567;-70
2022/07/08 00:37:46;;;;;;;27.10;25.20;;;17.20;69.70;;;;;;5011886;28;20477;-71
2022/07/08 00:40:13;;;;;;;27.00;25.30;;;17.30;69.60;;;;;;5009134;28;20571;-69
2022/07/08 00:42:40;;;;;;;27.00;25.00;;;17.40;69.40;;;;;;5011823;28;20855;-70
2022/07/08 00:45:10;;;;;;;26.47;24.93;;;17.30;69.40;;;;;;5009194;28;20526;-69
2022/07/08 00:47:37;;;;;;;27.30;25.47;;;17.30;70.00;;;;;;5010970;28;20998;-72
2022/07/08 00:50:04;;;;;;;27.63;25.80;;;17.10;70.40;;;;;;5006163;28;20483;-70
2022/07/08 00:52:31;;;;;;;28.00;26.20;;;17.00;70.80;;;;;;4998768;28;20454;-69
2022/07/08 00:54:59;;;;;;;27.27;25.37;;;16.90;71.00;;;;;;5007602;28;20471;-70
2022/07/08 00:57:27;;;;;;;28.00;26.00;;;16.80;71.20;;;;;;5009045;28;20512;-69
2022/07/08 00:59:54;;;;;;;27.90;25.90;;;16.60;71.70;;;;;;5007287;28;20982;-69
2022/07/08 01:02:22;;;;;;;26.70;24.90;;;16.60;71.50;;;;;;5010317;28;20461;-68
2022/07/08 01:04:50;;;;;;;29.53;27.40;;;16.50;71.30;;;;;;5009631;28;21001;-69
2022/07/08 01:07:18;;;;;;;28.53;26.77;;;16.30;71.60;;;;;;5011624;28;20489;-69
2022/07/08 01:09:45;;;;;;;28.80;26.60;;;16.10;72.30;;;;;;5008918;28;20449;-69
2022/07/08 01:12:12;;;;;;;28.00;26.30;;;16.20;71.80;;;;;;5011531;28;20540;-70
2022/07/08 01:14:39;;;;;;;28.63;26.50;;;16.20;71.60;;;;;;5005131;28;20485;-70
2022/07/08 01:17:06;;;;;;;28.33;26.47;;;16.10;71.70;;;;;;5010312;28;20544;-69
2022/07/08 01:19:34;;;;;;;28.30;26.50;;;16.10;71.60;;;;;;5005461;28;20477;-71
2022/07/08 01:22:03;;;;;;;27.60;25.90;;;16.00;71.60;;;;;;5010681;28;20461;-70
2022/07/08 01:24:30;;;;;;;28.20;26.20;;;16.10;71.20;;;;;;5008701;28;20560;-70
2022/07/08 01:26:58;;;;;;;27.67;25.97;;;16.10;70.90;;;;;;5009043;28;20540;-71
2022/07/08 01:29:25;;;;;;;29.23;26.43;;;16.00;70.90;;;;;;5008346;28;20579;-70
2022/07/08 01:31:53;;;;;;;28.43;26.63;;;16.00;70.90;;;;;;5009373;28;20536;-67
2022/07/08 01:34:20;;;;;;;28.57;26.57;;;16.00;71.00;;;;;;5008568;28;21083;-68
2022/07/08 01:36:47;;;;;;;28.03;26.03;;;16.00;70.60;;;;;;5009444;28;20457;-67
2022/07/08 01:39:15;;;;;;;28.83;26.60;;;16.00;70.40;;;;;;5007888;28;20592;-68
2022/07/08 01:41:42;;;;;;;27.90;26.10;;;15.90;70.50;;;;;;5010399;28;20461;-67
2022/07/08 01:44:09;;;;;;;28.13;26.10;;;15.80;70.50;;;;;;5009132;28;20457;-66
2022/07/08 01:46:36;;;;;;;27.70;26.00;;;15.70;71.10;;;;;;5010399;28;20454;-69
2022/07/08 01:49:05;;;;;;;27.87;25.97;;;15.60;71.40;;;;;;5007289;28;20481;-69
2022/07/08 01:51:32;;;;;;;29.50;27.10;;;15.50;71.50;;;;;;5005146;28;20620;-71
2022/07/08 01:53:59;;;;;;;28.20;26.20;;;15.60;71.30;;;;;;5008645;28;20479;-69
2022/07/08 01:56:27;;;;;;;27.60;25.60;;;15.50;71.40;;;;;;5010518;28;20445;-69
2022/07/08 01:58:54;;;;;;;27.40;25.50;;;15.50;71.60;;;;;;5007978;28;20487;-68
2022/07/08 02:01:21;;;;;;;28.57;26.60;;;15.40;71.80;;;;;;5009411;28;20473;-73
2022/07/08 02:03:48;;;;;;;27.20;25.40;;;15.40;72.00;;;;;;5006456;28;20485;-69
2022/07/08 02:06:15;;;;;;;27.40;25.47;;;15.50;71.80;;;;;;5008502;28;20959;-69
2022/07/08 02:08:42;;;;;;;29.33;27.17;;;15.40;71.90;;;;;;5006019;28;20483;-69
2022/07/08 02:13:54;;;;;;;28.20;26.13;;;15.10;73.10;;;;;;5008001;28;20596;-69
2022/07/08 02:16:21;;;;;;;27.40;25.70;;;15.10;73.50;;;;;;5008252;28;20474;-69
2022/07/08 02:18:48;;;;;;;27.77;25.90;;;15.10;73.60;;;;;;5008851;28;20485;-67
2022/07/08 02:21:15;;;;;;;28.50;26.07;;;15.00;73.80;;;;;;5006600;28;20573;-68
2022/07/08 02:23:42;;;;;;;27.67;25.87;;;15.10;73.70;;;;;;5007017;28;20552;-67
2022/07/08 02:26:09;;;;;;;28.03;26.33;;;15.00;74.00;;;;;;5010358;28;20461;-67
2022/07/08 02:28:36;;;;;;;28.07;25.93;;;14.90;74.30;;;;;;5003357;28;20480;-68
2022/07/08 02:31:05;;;;;;;28.03;25.93;;;14.80;74.70;;;;;;5007343;28;20544;-69
2022/07/08 02:33:32;;;;;;;28.43;26.43;;;14.90;74.40;;;;;;5007003;28;20464;-70
2022/07/08 02:35:59;;;;;;;28.40;26.50;;;14.80;75.00;;;;;;5007533;28;20990;-70
2022/07/08 02:38:26;;;;;;;28.60;26.73;;;14.70;75.20;;;;;;5008679;28;20483;-69
2022/07/08 02:40:53;;;;;;;26.77;25.20;;;14.70;75.00;;;;;;5007265;28;21002;-67
2022/07/08 02:43:20;;;;;;;28.10;26.10;;;14.70;75.00;;;;;;5007202;28;20567;-67
2022/07/08 02:45:47;;;;;;;27.80;25.90;;;14.70;75.30;;;;;;5006739;28;20463;-67
2022/07/08 02:48:15;;;;;;;27.27;25.23;;;14.60;75.60;;;;;;5004513;28;20492;-67
2022/07/08 02:50:42;;;;;;;28.10;25.97;;;14.70;75.40;;;;;;5002148;28;20457;-67
2022/07/08 02:53:09;;;;;;;28.17;25.67;;;14.80;75.10;;;;;;5001210;28;20831;-68
2022/07/08 02:55:36;;;;;;;27.77;25.63;;;14.80;74.90;;;;;;5008897;28;20449;-68
2022/07/08 02:58:03;;;;;;;27.80;25.87;;;14.80;75.00;;;;;;5007038;28;20825;-67
2022/07/08 03:00:30;;;;;;;27.47;25.63;;;14.90;74.90;;;;;;5007937;28;20589;-67
2022/07/08 03:02:56;;;;;;;27.00;25.20;;;14.80;74.70;;;;;;5006927;28;20468;-66
2022/07/08 03:05:25;;;;;;;26.30;24.40;;;14.80;74.80;;;;;;5007972;28;20464;-68
2022/07/08 03:07:52;;;;;;;26.73;25.17;;;14.70;75.20;;;;;;5007031;28;20792;-67
2022/07/08 03:10:19;;;;;;;27.83;25.83;;;14.70;75.40;;;;;;5003321;28;20544;-68
2022/07/08 03:12:46;;;;;;;27.30;25.27;;;14.70;75.30;;;;;;5007417;28;20584;-69
2022/07/08 03:15:13;;;;;;;28.10;25.90;;;14.70;75.30;;;;;;5008783;28;20532;-71
2022/07/08 03:17:39;;;;;;;27.37;25.37;;;14.80;75.00;;;;;;5007449;28;20563;-69
2022/07/08 03:20:07;;;;;;;30.03;27.63;;;14.80;74.80;;;;;;5006805;28;20531;-68
2022/07/08 03:22:36;;;;;;;30.87;28.73;;;14.80;74.90;;;;;;5007498;28;20552;-69
2022/07/08 03:25:03;;;;;;;27.03;24.93;;;14.80;74.70;;;;;;5006328;28;20540;-69
2022/07/08 03:27:30;;;;;;;27.97;25.87;;;14.80;74.70;;;;;;5003351;28;20559;-72
2022/07/08 03:29:57;;;;;;;28.03;26.00;;;15.00;74.30;;;;;;5005659;28;20556;-68
2022/07/08 03:32:25;;;;;;;28.53;26.73;;;14.90;74.40;;;;;;5007399;28;20477;-70
2022/07/08 03:34:52;;;;;;;31.33;29.33;;;14.90;74.60;;;;;;5007046;28;20469;-69
2022/07/08 03:37:19;;;;;;;28.83;26.60;;;14.90;74.50;;;;;;5007895;28;20527;-69
2022/07/08 03:39:48;;;;;;;27.43;25.67;;;14.80;74.80;;;;;;5006790;28;20594;-68
2022/07/08 03:42:14;;;;;;;27.67;25.60;;;14.80;74.80;;;;;;5007131;28;21129;-67
2022/07/08 03:44:41;;;;;;;28.17;26.17;;;14.80;75.00;;;;;;5007756;28;20453;-67
2022/07/08 03:47:08;;;;;;;29.23;27.10;;;14.80;74.60;;;;;;5008940;28;20488;-67
2022/07/08 03:49:36;;;;;;;28.10;26.00;;;14.80;75.10;;;;;;5004991;28;20600;-67
2022/07/08 03:52:04;;;;;;;31.87;29.67;;;14.90;74.80;;;;;;5004648;28;20463;-67
2022/07/08 03:54:31;;;;;;;27.43;25.63;;;15.00;74.50;;;;;;5006546;28;20467;-67
2022/07/08 03:56:59;;;;;;;28.23;26.20;;;15.10;74.00;;;;;;5008124;28;20457;-67
2022/07/08 03:59:26;;;;;;;28.77;26.70;;;15.30;73.30;;;;;;5006477;28;20587;-67
2022/07/08 04:01:53;;;;;;;28.27;26.37;;;15.30;73.30;;;;;;5007554;28;20477;-67
2022/07/08 04:04:20;;;;;;;28.97;26.87;;;15.40;72.90;;;;;;5008011;28;20453;-69
2022/07/08 04:06:47;;;;;;;27.43;25.53;;;15.50;72.70;;;;;;5013737;28;20541;-67
2022/07/08 04:09:14;;;;;;;27.73;25.63;;;15.60;72.20;;;;;;5009359;28;20551;-67
2022/07/08 04:11:41;;;;;;;28.20;26.33;;;15.70;72.00;;;;;;5011705;28;20456;-68
2022/07/08 04:14:10;;;;;;;30.57;28.17;;;15.70;71.80;;;;;;5009493;28;20545;-67
2022/07/08 04:16:37;;;;;;;31.70;29.40;;;15.50;72.10;;;;;;5010676;28;20465;-68
2022/07/08 04:19:04;;;;;;;29.10;26.80;;;15.60;71.80;;;;;;5009465;28;20474;-68
2022/07/08 04:21:30;;;;;;;26.83;24.93;;;15.70;71.50;;;;;;5010101;28;20958;-68
2022/07/08 04:23:59;;;;;;;28.73;26.60;;;15.80;71.20;;;;;;5010536;28;20532;-68
2022/07/08 04:26:31;;;;;;;28.47;26.10;;;15.80;71.10;;;;;;5011740;28;20456;-68
2022/07/08 04:28:58;;;;;;;29.13;27.33;;;15.80;71.20;;;;;;5007915;28;20476;-68
2022/07/08 04:31:26;;;;;;;29.50;27.43;;;15.90;71.10;;;;;;5009301;28;20551;-68
2022/07/08 04:33:54;;;;;;;28.70;26.80;;;16.00;70.70;;;;;;5009199;28;20520;-66
2022/07/08 04:36:21;;;;;;;28.00;25.90;;;16.00;70.70;;;;;;5003050;28;20457;-69
2022/07/08 04:38:48;;;;;;;27.63;25.73;;;16.00;70.40;;;;;;5001722;28;20484;-72
2022/07/08 04:41:15;;;;;;;27.97;26.07;;;15.80;71.00;;;;;;5009848;28;20487;-68
2022/07/08 04:43:43;;;;;;;29.40;27.50;;;15.80;70.80;;;;;;5008827;28;20457;-68
2022/07/08 04:46:11;;;;;;;30.27;28.20;;;15.80;70.70;;;;;;5010339;28;20469;-68
2022/07/08 04:48:39;;;;;;;29.20;27.27;;;15.80;70.70;;;;;;5009145;28;20566;-68
2022/07/08 04:51:07;;;;;;;30.63;28.73;;;15.80;70.60;;;;;;5010029;28;20532;-68
2022/07/08 04:53:34;;;;;;;28.07;26.07;;;15.70;71.40;;;;;;5009926;28;21046;-68
2022/07/08 04:56:01;;;;;;;29.00;26.70;;;15.70;71.40;;;;;;5008946;28;20465;-68
2022/07/08 04:58:27;;;;;;;27.67;25.73;;;15.50;71.80;;;;;;5004506;28;21301;-68
2022/07/08 05:00:54;;;;;;;28.00;26.30;;;15.60;71.60;;;;;;5010384;28;20600;-70
2022/07/08 05:03:21;;;;;;;30.30;28.47;;;15.60;71.30;;;;;;5006507;28;20461;-69
2022/07/08 05:05:50;;;;;;;29.23;27.03;;;15.60;71.20;;;;;;5007438;28;21114;-70
2022/07/08 05:08:17;;;;;;;30.70;28.47;;;15.60;71.30;;;;;;5010193;28;20511;-70
2022/07/08 05:10:44;;;;;;;29.70;27.77;;;15.70;71.60;;;;;;5007745;28;20540;-70
2022/07/08 05:13:12;;;;;;;29.27;27.27;;;15.60;71.10;;;;;;5008692;28;20536;-68
2022/07/08 05:15:39;;;;;;;30.83;28.63;;;15.50;71.00;;;;;;5006893;28;20466;-68
2022/07/08 05:18:06;;;;;;;30.43;28.30;;;15.70;71.20;;;;;;5008268;28;20485;-68
2022/07/08 05:20:34;;;;;;;29.30;27.50;;;15.80;70.90;;;;;;5010912;28;20461;-70
2022/07/08 05:23:02;;;;;;;27.73;25.80;;;15.90;70.80;;;;;;5008733;28;20540;-68
2022/07/08 05:25:29;;;;;;;29.50;26.87;;;15.90;70.40;;;;;;5002617;28;20548;-68
2022/07/08 05:27:56;;;;;;;28.47;26.60;;;15.90;69.50;;;;;;5007510;28;20500;-68
2022/07/08 05:30:23;;;;;;;28.53;26.10;;;15.90;69.70;;;;;;4994801;28;20611;-68
2022/07/08 05:32:50;;;;;;;26.38;24.38;;;15.80;70.30;;;;;;5006213;28;20571;-68
2022/07/08 05:35:17;;;;;;;28.23;26.43;;;15.90;70.10;;;;;;5006521;28;20203;-71
2022/07/08 05:37:43;;;;;;;29.57;27.67;;;16.00;69.80;;;;;;5010514;28;20552;-71
2022/07/08 05:40:12;;;;;;;29.47;27.37;;;16.30;67.90;;;;;;5008623;28;20556;-69
2022/07/08 05:42:40;;;;;;;28.43;26.33;;;16.20;68.30;;;;;;5009743;28;20476;-68
2022/07/08 05:45:08;;;;;;;28.20;26.40;;;16.10;69.00;;;;;;5010944;28;20557;-69
2022/07/08 05:47:34;;;;;;;30.83;28.37;;;16.20;68.80;;;;;;5006500;28;21060;-67
2022/07/08 05:50:02;;;;;;;30.40;27.90;;;16.30;68.60;;;;;;5008774;28;20568;-68
2022/07/08 05:52:29;;;;;;;30.13;27.47;;;16.40;68.00;;;;;;5009846;28;20545;-67
2022/07/08 05:54:56;;;;;;;28.90;26.90;;;16.50;67.60;;;;;;5010655;28;20489;-68
2022/07/08 05:57:24;;;;;;;27.83;26.13;;;16.20;68.40;;;;;;5011024;28;21034;-67
2022/07/08 05:59:51;;;;;;;29.07;27.10;;;16.20;68.70;;;;;;5008948;28;20488;-68
2022/07/08 06:02:18;;;;;;;28.27;26.27;;;16.00;69.20;;;;;;5009434;28;20963;-68
2022/07/08 06:04:45;;;;;;;29.10;27.40;;;16.00;69.40;;;;;;5009109;28;20872;-69
2022/07/08 06:07:12;;;;;;;29.40;27.40;;;15.90;69.70;;;;;;5011264;28;20468;-68
2022/07/08 06:09:39;;;;;;;28.17;26.17;;;16.10;69.60;;;;;;5008625;28;20453;-68
2022/07/08 06:12:07;;;;;;;28.50;26.53;;;16.30;68.40;;;;;;5003365;28;20463;-71
2022/07/08 06:14:35;;;;;;;28.00;26.27;;;16.40;67.90;;;;;;5006182;28;20823;-69
2022/07/08 06:17:02;;;;;;;28.40;26.60;;;16.40;67.90;;;;;;5009323;28;20460;-69
2022/07/08 06:19:29;;;;;;;30.10;28.17;;;16.50;68.00;;;;;;5009942;28;20560;-70
2022/07/08 06:21:56;;;;;;;28.47;26.40;;;16.50;67.30;;;;;;5009464;28;20925;-72
2022/07/08 06:24:23;;;;;;;29.77;27.53;;;16.50;67.80;;;;;;5007080;28;20463;-69
2022/07/08 06:26:51;;;;;;;27.90;26.00;;;16.50;67.50;;;;;;5011177;28;20461;-69
2022/07/08 06:29:18;;;;;;;28.60;26.70;;;16.70;67.10;;;;;;5008769;28;20500;-69
2022/07/08 06:31:46;;;;;;;27.38;25.48;;;16.90;66.20;;;;;;5009187;28;20464;-70
2022/07/08 06:34:14;;;;;;;28.00;26.00;;;17.10;65.00;;;;;;5009129;28;20584;-70
2022/07/08 06:36:41;;;;;;;28.63;26.80;;;17.10;65.10;;;;;;5008249;28;20540;-70
2022/07/08 06:39:08;;;;;;;28.00;26.10;;;17.00;65.30;;;;;;5008761;28;20481;-70
2022/07/08 06:41:35;;;;;;;29.90;27.70;;;17.10;65.00;;;;;;5008590;28;20540;-71
2022/07/08 06:44:02;;;;;;;28.13;26.43;;;17.20;64.60;;;;;;5008341;28;20473;-70
2022/07/08 06:46:29;;;;;;;29.47;27.57;;;17.30;64.10;;;;;;5010913;28;20485;-70
2022/07/08 06:48:57;;;;;;;29.80;27.73;;;17.40;63.70;;;;;;5008159;28;21003;-68
2022/07/08 06:51:27;;;;;;;28.97;27.20;;;17.30;63.40;;;;;;5009193;28;20951;-68
2022/07/08 06:56:39;;;;;;;30.90;28.70;;;17.70;62.40;;;;;;5009309;28;21021;-68
2022/07/08 06:59:07;;;;;;;31.57;29.50;;;17.80;62.10;;;;;;5008256;28;20536;-69
2022/07/08 07:01:34;;;;;;;27.90;26.10;;;18.00;61.40;;;;;;5009655;28;20544;-67
2022/07/08 07:04:03;;;;;;;29.03;27.23;;;17.90;60.40;;;;;;5007110;28;20879;-68
2022/07/08 07:06:30;;;;;;;30.60;28.60;;;17.90;61.40;;;;;;5009635;28;20520;-67
2022/07/08 07:08:57;;;;;;;28.00;26.20;;;18.20;61.40;;;;;;5009062;28;20489;-69
2022/07/08 07:11:24;;;;;;;29.97;27.97;;;18.60;58.90;;;;;;5008935;28;20943;-68
2022/07/08 07:13:51;;;;;;;28.13;26.10;;;18.60;58.80;;;;;;5009457;28;20580;-68
2022/07/08 07:16:18;;;;;;;29.53;27.53;;;18.70;58.40;;;;;;5007459;28;20457;-67
2022/07/08 07:18:45;;;;;;;28.10;26.50;;;18.50;58.30;;;;;;5007551;28;20577;-68
2022/07/08 07:21:13;;;;;;;27.93;26.13;;;18.30;58.50;;;;;;5009221;28;20468;-70
2022/07/08 07:23:41;;;;;;;31.43;29.33;;;18.40;58.30;;;;;;5008337;28;20561;-69
2022/07/08 07:26:08;;;;;;;29.13;27.10;;;18.60;58.20;;;;;;5009919;28;20559;-69
2022/07/08 07:28:36;;;;;;;29.67;27.80;;;18.80;57.80;;;;;;5007702;28;20491;-72
2022/07/08 07:31:03;;;;;;;30.53;28.63;;;18.90;56.60;;;;;;5008338;28;20546;-71
2022/07/08 07:33:30;;;;;;;32.73;30.60;;;19.10;57.00;;;;;;5006108;28;20548;-70
2022/07/08 07:35:57;;;;;;;31.60;29.50;;;19.40;57.30;;;;;;5009644;28;20485;-69
2022/07/08 07:38:25;;;;;;;27.80;25.93;;;19.80;56.60;;;;;;5007447;28;20482;-71
2022/07/08 07:40:52;;;;;;;30.13;28.27;;;20.20;54.50;;;;;;5008395;28;20558;-72
2022/07/08 07:43:20;;;;;;;28.90;27.20;;;20.10;54.20;;;;;;5006925;28;20492;-71
2022/07/08 07:45:47;;;;;;;29.60;27.50;;;20.10;53.70;;;;;;5009941;28;20537;-71
2022/07/08 07:48:14;;;;;;;31.07;29.10;;;19.80;54.50;;;;;;5008029;28;20572;-72
2022/07/08 07:50:41;;;;;;;28.33;26.43;;;19.90;54.20;;;;;;5007349;28;20454;-68
2022/07/08 07:53:08;;;;;;;27.20;25.60;;;20.10;53.10;;;;;;5006858;28;20968;-69
2022/07/08 07:55:37;;;;;;;30.90;28.63;;;19.90;54.10;;;;;;5009880;28;20510;-71
2022/07/08 07:58:04;;;;;;;27.37;25.77;;;19.50;54.60;;;;;;5009024;28;20495;-69
2022/07/08 08:00:31;;;;;;;27.73;26.13;;;19.40;54.80;;;;;;5008997;28;20461;-70
2022/07/08 08:02:58;;;;;;;29.60;27.70;;;19.00;55.80;;;;;;5006754;28;20519;-70
2022/07/08 08:05:25;;;;;;;28.30;26.50;;;18.90;56.40;;;;;;5009016;28;20465;-68
2022/07/08 08:07:52;;;;;;;28.83;27.03;;;19.10;57.00;;;;;;5009444;28;20485;-69
2022/07/08 08:10:20;;;;;;;27.37;25.73;;;19.40;57.20;;;;;;5009031;28;21070;-70
2022/07/08 08:12:48;;;;;;;27.53;25.73;;;19.60;55.10;;;;;;5008086;28;20534;-70
2022/07/08 08:15:15;;;;;;;27.97;26.37;;;19.60;54.80;;;;;;4993949;28;20485;-70
2022/07/08 08:17:43;;;;;;;27.43;25.70;;;19.20;55.30;;;;;;5009105;28;20561;-69
2022/07/08 08:20:12;;;;;;;28.03;26.33;;;18.90;56.00;;;;;;5007804;28;20584;-70
2022/07/08 08:22:40;;;;;;;29.43;27.63;;;18.80;55.80;;;;;;5008468;28;21043;-69
2022/07/08 08:25:07;;;;;;;28.20;26.23;;;19.10;55.10;;;;;;5009752;28;20546;-70
2022/07/08 08:27:39;;;;;;;28.67;26.80;;;19.30;54.60;;;;;;5008527;28;20489;-71
2022/07/08 08:30:09;;;;;;;29.63;27.63;;;19.60;53.80;;;;;;5007359;28;20472;-70
2022/07/08 08:32:36;;;;;;;29.87;28.10;;;19.90;53.80;;;;;;5007060;28;20519;-69
2022/07/08 08:35:03;;;;;;;28.50;26.50;;;20.00;52.60;;;;;;5007798;28;20893;-69
2022/07/08 08:37:30;;;;;;;27.43;25.70;;;20.20;52.90;;;;;;5008519;28;20483;-69
2022/07/08 08:40:01;;;;;;;30.57;28.77;;;20.20;52.00;;;;;;5007864;28;20473;-69
2022/07/08 08:42:29;;;;;;;27.60;26.00;;;20.40;51.90;;;;;;5007064;28;20563;-69
2022/07/08 08:44:57;;;;;;;30.50;28.40;;;20.40;52.10;;;;;;5007876;28;20474;-69
2022/07/08 08:47:29;;;;;;;29.23;27.20;;;20.50;51.60;;;;;;5012647;28;20457;-69
2022/07/08 08:49:57;;;;;;;30.47;28.37;;;20.40;52.10;;;;;;5011846;28;21057;-69
2022/07/08 08:52:24;;;;;;;27.50;25.80;;;20.30;52.40;;;;;;5012737;28;20512;-69
2022/07/08 08:54:52;;;;;;;26.33;24.83;;;20.30;52.60;;;;;;5011667;28;20489;-70
2022/07/08 08:57:20;;;;;;;28.27;26.67;;;20.20;52.30;;;;;;5013088;28;20889;-69
2022/07/08 08:59:47;;;;;;;28.77;27.00;;;19.80;52.90;;;;;;5011375;28;20460;-69
2022/07/08 09:02:15;;;;;;;28.10;26.30;;;19.80;53.30;;;;;;5011799;28;21066;-71
2022/07/08 09:04:44;;;;;;;27.70;25.80;;;19.90;52.70;;;;;;5010810;28;20454;-69
2022/07/08 09:07:11;;;;;;;30.60;28.90;;;19.90;52.40;;;;;;5011279;28;20541;-69
2022/07/08 09:09:38;;;;;;;27.80;25.93;;;19.90;51.90;;;;;;5009656;28;20535;-69
2022/07/08 09:12:21;;;;;;;28.30;26.40;;;19.80;52.90;;;;;;5008162;28;22396;-69
2022/07/08 09:14:52;;;;;;;27.40;25.80;;;19.60;53.20;;;;;;5010211;28;20457;-69
2022/07/08 09:17:19;;;;;;;32.40;30.40;;;19.80;53.50;;;;;;5011065;28;20463;-71
2022/07/08 09:19:49;;;;;;;27.40;25.80;;;20.10;53.70;;;;;;5010926;28;20459;-70
2022/07/08 09:22:16;;;;;;;29.70;27.73;;;20.20;52.10;;;;;;5009605;28;20470;-69
2022/07/08 09:24:45;;;;;;;27.93;25.93;;;20.30;52.30;;;;;;5011016;28;20469;-69
2022/07/08 09:27:12;;;;;;;27.53;25.57;;;19.90;52.50;;;;;;5010702;28;20549;-69
2022/07/08 09:29:55;;;;;;;27.37;25.67;;;19.70;53.10;;;;;;5011201;28;20469;-69
2022/07/08 09:32:22;;;;;;;27.97;25.90;;;19.30;53.80;;;;;;5010324;28;20528;-70
2022/07/08 09:34:50;;;;;;;27.20;25.57;;;19.20;54.60;;;;;;5009589;28;20978;-69
2022/07/08 09:37:20;;;;;;;27.90;26.20;;;19.40;54.50;;;;;;5011611;28;20465;-70
2022/07/08 09:39:48;;;;;;;30.60;28.90;;;19.50;53.70;;;;;;5010314;28;20458;-71
2022/07/08 09:42:16;;;;;;;29.57;27.40;;;19.60;53.80;;;;;;5010825;28;20511;-68
2022/07/08 09:44:50;;;;;;;28.00;26.20;;;19.80;53.60;;;;;;5010089;28;20464;-69
2022/07/08 09:47:17;;;;;;;31.07;29.27;;;19.90;53.30;;;;;;5011934;28;20475;-70
2022/07/08 09:49:45;;;;;;;30.13;28.43;;;20.10;52.50;;;;;;5009920;28;20555;-68
2022/07/08 09:52:21;;;;;;;27.50;25.67;;;20.00;52.80;;;;;;5010415;28;20453;-69
2022/07/08 09:55:00;;;;;;;27.23;25.70;;;20.10;52.70;;;;;;5008688;28;20984;-67
2022/07/08 09:57:28;;;;;;;27.80;26.10;;;20.20;52.80;;;;;;5010443;28;20477;-70
2022/07/08 09:59:55;;;;;;;29.27;27.07;;;19.90;52.60;;;;;;5009452;28;20478;-68
2022/07/08 10:02:22;;;;;;;27.43;25.70;;;20.10;53.20;;;;;;5010316;28;20554;-68
2022/07/08 10:04:50;;;;;;;26.80;25.20;;;20.00;53.30;;;;;;5009664;28;20462;-69
2022/07/08 10:07:19;;;;;;;27.57;25.60;;;19.90;53.20;;;;;;5009130;28;20469;-74
2022/07/08 10:09:46;;;;;;;28.93;27.03;;;20.00;53.40;;;;;;5009853;28;21003;-73
2022/07/08 10:12:15;;;;;;;28.90;27.03;;;20.00;53.60;;;;;;5010064;28;20577;-70
2022/07/08 10:14:46;;;;;;;28.20;26.30;;;19.80;53.90;;;;;;5009782;28;20545;-70
2022/07/08 10:17:18;;;;;;;27.53;25.60;;;19.30;55.00;;;;;;5008318;28;20454;-69
2022/07/08 10:19:47;;;;;;;28.90;26.73;;;19.10;55.10;;;;;;5010573;28;20453;-69
2022/07/08 10:22:18;;;;;;;27.20;25.50;;;19.30;55.50;;;;;;5008251;28;20485;-69
2022/07/08 10:24:48;;;;;;;27.50;25.70;;;19.30;54.40;;;;;;5007872;28;20457;-70
2022/07/08 10:27:15;;;;;;;28.77;26.93;;;19.20;54.60;;;;;;5003276;28;21117;-67
2022/07/08 10:29:41;;;;;;;27.43;25.83;;;19.10;55.00;;;;;;5004651;28;20461;-70
2022/07/08 10:32:24;;;;;;;26.97;25.27;;;19.10;54.70;;;;;;5005399;28;20462;-70
2022/07/08 10:35:08;;;;;;;27.20;25.50;;;19.40;54.80;;;;;;5005361;28;20458;-70
2022/07/08 10:37:48;;;;;;;27.80;26.10;;;19.80;53.90;;;;;;5008392;28;20843;-69
2022/07/08 10:40:51;;;;;;;27.00;25.30;;;19.90;53.40;;;;;;5007611;28;20502;-70
2022/07/08 10:43:27;;;;;;;28.97;27.20;;;19.80;53.60;;;;;;5007006;28;20571;-69
2022/07/08 10:46:12;;;;;;;29.17;27.03;;;19.70;52.70;;;;;;5008815;28;20540;-70
2022/07/08 10:48:54;;;;;;;28.40;26.80;;;19.60;52.10;;;;;;5006548;28;20495;-70
2022/07/08 10:51:57;;;;;;;29.73;27.80;;;19.50;52.80;;;;;;5009974;28;20540;-69
2022/07/08 10:54:44;;;;;;;30.07;28.07;;;19.40;53.20;;;;;;5007321;28;20528;-70
2022/07/08 10:57:18;;;;;;;28.10;26.40;;;19.50;53.90;;;;;;5008402;28;20458;-70
2022/07/08 12:12:40;;;;;;;28.53;26.80;;;20.10;53.00;;;;;;5066167;27;20994;-68
2022/07/08 12:15:15;;;;;;;28.20;26.43;;;20.40;52.60;;;;;;5054496;28;21055;-70
2022/07/08 12:17:42;;;;;;;30.97;28.60;;;20.80;51.20;;;;;;5058589;28;20519;-68
2022/07/08 12:20:10;;;;;;;28.63;26.43;;;21.00;51.00;;;;;;5046317;28;20951;-69
2022/07/08 12:22:45;;;;;;;28.30;26.43;;;21.30;50.40;;;;;;5044091;28;20558;-69
2022/07/08 12:25:12;;;;;;;29.70;27.90;;;21.60;49.40;;;;;;5046306;28;20455;-69
2022/07/08 12:27:41;;;;;;;28.53;26.80;;;21.70;49.30;;;;;;5047942;28;20569;-69
2022/07/08 12:30:09;;;;;;;30.20;28.30;;;21.70;50.20;;;;;;5051286;28;20491;-69
2022/07/08 12:32:40;;;;;;;31.33;29.53;;;22.00;48.50;;;;;;5044991;28;20904;-69
2022/07/08 12:35:08;;;;;;;31.20;29.10;;;21.80;48.40;;;;;;5055912;28;21808;-68
2022/07/08 12:37:35;;;;;;;28.50;26.73;;;21.70;48.70;;;;;;5058798;28;20480;-70
2022/07/08 12:40:21;;;;;;;30.80;29.00;;;21.80;48.60;;;;;;5047740;28;21022;-69
2022/07/08 12:43:04;;;;;;;29.23;27.10;;;21.40;49.80;;;;;;5043969;28;20543;-69
2022/07/08 12:45:31;;;;;;;30.43;28.43;;;21.40;50.30;;;;;;5042683;28;20895;-69
2022/07/08 12:47:59;;;;;;;30.67;28.67;;;21.40;50.50;;;;;;5043833;28;20475;-71
2022/07/08 12:50:32;;;;;;;29.80;27.80;;;21.70;50.00;;;;;;5060323;28;20461;-73
2022/07/08 12:52:59;;;;;;;29.40;27.60;;;21.80;50.00;;;;;;5044126;28;20573;-71
2022/07/08 12:55:27;;;;;;;29.53;27.63;;;21.90;50.00;;;;;;5050607;28;20538;-71
2022/07/08 12:57:54;;;;;;;28.67;27.07;;;22.00;49.20;;;;;;5059669;28;20480;-71
2022/07/08 13:00:23;;;;;;;30.67;28.87;;;22.20;49.60;;;;;;5044770;28;20458;-71
2022/07/08 13:02:50;;;;;;;29.03;27.43;;;22.30;48.30;;;;;;5051654;28;20457;-68
2022/07/08 13:05:17;;;;;;;31.17;29.27;;;22.20;47.70;;;;;;5053161;28;20549;-68
2022/07/08 13:07:44;;;;;;;30.37;28.47;;;22.10;48.30;;;;;;5059278;28;21007;-72
2022/07/08 13:10:11;;;;;;;27.97;26.20;;;22.00;48.40;;;;;;5054690;28;20461;-69
2022/07/08 13:12:38;;;;;;;29.60;27.73;;;22.00;47.60;;;;;;5047434;28;20475;-68
2022/07/08 13:15:07;;;;;;;30.97;29.27;;;21.80;48.00;;;;;;5044454;28;20548;-69
2022/07/08 13:17:35;;;;;;;28.70;26.80;;;21.80;48.50;;;;;;5062055;28;20555;-70
2022/07/08 13:20:03;;;;;;;30.67;28.67;;;21.80;48.70;;;;;;5046213;28;20955;-70
2022/07/08 13:22:29;;;;;;;28.00;26.40;;;22.00;48.70;;;;;;5059617;28;20457;-70
2022/07/08 13:24:56;;;;;;;29.03;27.23;;;22.20;48.60;;;;;;5033670;28;20459;-70
2022/07/08 13:27:23;;;;;;;29.00;27.20;;;22.50;48.50;;;;;;5031177;28;20550;-72
2022/07/08 13:29:51;;;;;;;28.60;26.80;;;22.60;48.60;;;;;;5030535;28;21071;-70
2022/07/08 13:32:18;;;;;;;30.50;28.57;;;22.70;48.40;;;;;;5036868;28;20496;-72
2022/07/08 13:34:46;;;;;;;29.77;27.87;;;23.00;47.80;;;;;;5035485;28;20456;-70
2022/07/08 13:37:13;;;;;;;29.97;28.23;;;23.10;47.70;;;;;;5032448;28;20542;-69
2022/07/08 13:39:40;;;;;;;32.27;30.23;;;23.20;47.30;;;;;;5043329;28;20578;-69
2022/07/08 13:42:07;;;;;;;29.30;27.33;;;23.20;47.20;;;;;;5036826;28;20463;-69
2022/07/08 13:44:34;;;;;;;30.90;28.70;;;23.20;47.50;;;;;;5032625;28;20475;-68
2022/07/08 13:47:01;;;;;;;31.07;29.03;;;23.00;46.80;;;;;;5037414;28;20558;-69
2022/07/08 13:49:28;;;;;;;33.33;31.27;;;22.90;46.80;;;;;;5035107;28;20484;-69
2022/07/08 13:51:56;;;;;;;29.27;27.53;;;23.00;47.10;;;;;;5032282;28;20479;-69